Time;durP1;ratioP1;P1;durP2;ratioP2;P2;SDS_P1;SDS_P2;PMS_P1;PMS_P2;Temp;Humidity;BMP_temperature;BMP_pressure;BME280_temperature;BME280_humidity;BME280_pressure;Samples;Min_cycle;Max_cycle;Signal;HPM_P1;HPM_P2
2023/04/27 00:01:38;;;;;;;7.97;4.43;;;8.80;99.90;;;7.80;100.00;97415.91;4933912;29;20424;-77
2023/04/27 00:04:05;;;;;;;9.85;5.25;;;8.80;99.90;;;7.77;100.00;97403.97;4934209;29;20418;-77
2023/04/27 00:06:31;;;;;;;17.35;4.80;;;8.80;99.90;;;7.78;100.00;97413.47;4934051;29;20411;-77
2023/04/27 00:08:58;;;;;;;11.63;5.38;;;8.80;99.90;;;7.77;100.00;97409.25;4934079;29;20772;-77
2023/04/27 00:11:24;;;;;;;10.43;4.80;;;8.80;99.90;;;7.76;100.00;97414.75;4933886;29;20492;-77
2023/04/27 00:13:51;;;;;;;6.00;4.57;;;8.80;99.90;;;7.76;100.00;97401.56;4934081;29;20408;-77
2023/04/27 00:16:17;;;;;;;7.40;4.53;;;8.80;99.90;;;7.78;100.00;97402.16;4933799;29;20411;-77
2023/04/27 00:18:43;;;;;;;6.70;4.47;;;8.80;99.90;;;7.81;100.00;97396.41;4933884;29;20416;-77
2023/04/27 00:21:09;;;;;;;7.45;4.38;;;8.90;99.90;;;7.83;100.00;97402.25;4933645;29;20783;-77
2023/04/27 00:23:35;;;;;;;7.43;4.50;;;8.90;99.90;;;7.83;100.00;97399.59;4933895;29;20415;-77
2023/04/27 00:26:01;;;;;;;12.13;4.97;;;8.90;99.90;;;7.82;100.00;97403.25;4933764;29;20407;-79
2023/04/27 00:28:27;;;;;;;7.87;4.57;;;8.90;99.90;;;7.81;100.00;97404.31;4933807;29;20794;-77
2023/04/27 00:30:55;;;;;;;11.75;4.80;;;8.80;99.90;;;7.75;100.00;97394.69;4933519;29;20431;-77
2023/04/27 00:33:20;;;;;;;9.40;4.85;;;8.80;99.90;;;7.70;100.00;97398.03;4932963;29;20415;-77
2023/04/27 00:35:46;;;;;;;9.50;4.33;;;8.80;99.90;;;7.65;100.00;97395.31;4933610;29;20446;-77
2023/04/27 00:38:12;;;;;;;5.70;4.25;;;8.60;99.90;;;7.60;100.00;97400.44;4933565;29;20406;-77
2023/04/27 00:40:38;;;;;;;9.80;4.85;;;8.60;99.90;;;7.56;100.00;97386.16;4933140;29;20423;-77
2023/04/27 00:43:04;;;;;;;6.68;4.00;;;8.60;99.90;;;7.57;100.00;97384.31;4933410;29;20439;-77
2023/04/27 00:45:30;;;;;;;6.70;4.03;;;8.60;99.90;;;7.56;100.00;97383.50;4933479;29;20415;-77
2023/04/27 00:47:58;;;;;;;6.30;4.22;;;8.60;99.90;;;7.56;100.00;97386.16;4933483;29;20423;-77
2023/04/27 00:50:28;;;;;;;6.25;4.50;;;8.60;99.90;;;7.58;100.00;97372.75;4932142;29;20415;-77
2023/04/27 00:52:55;;;;;;;7.95;4.50;;;8.60;99.90;;;7.60;100.00;97382.00;4933559;29;20568;-77
2023/04/27 00:55:21;;;;;;;4.93;4.20;;;8.70;99.90;;;7.63;100.00;97380.75;4933325;29;20459;-77
2023/04/27 00:57:47;;;;;;;8.43;4.72;;;8.70;99.90;;;7.65;100.00;97376.88;4933488;29;20411;-77
2023/04/27 01:00:14;;;;;;;6.47;4.65;;;8.70;99.90;;;7.67;100.00;97373.97;4933264;29;20435;-77
2023/04/27 01:02:41;;;;;;;9.40;4.80;;;8.70;99.90;;;7.65;100.00;97378.69;4933490;29;20418;-77
2023/04/27 01:05:09;;;;;;;11.27;5.20;;;8.70;99.90;;;7.64;100.00;97383.16;4933386;29;20818;-77
2023/04/27 01:07:37;;;;;;;12.23;5.10;;;8.70;99.90;;;7.62;100.00;97389.69;4933379;29;20465;-77
2023/04/27 01:10:04;;;;;;;9.43;4.78;;;8.70;99.90;;;7.55;100.00;97383.75;4933381;29;20981;-77
2023/04/27 01:12:31;;;;;;;7.63;4.73;;;8.60;99.90;;;7.48;100.00;97383.88;4933470;29;20502;-77
2023/04/27 01:14:56;;;;;;;10.95;4.53;;;8.50;99.90;;;7.47;100.00;97387.53;4933341;29;20414;-77
2023/04/27 01:17:23;;;;;;;7.53;5.10;;;8.50;99.90;;;7.44;100.00;97385.38;4933662;29;20415;-77
2023/04/27 01:19:50;;;;;;;9.80;4.88;;;8.50;99.90;;;7.42;100.00;97379.53;4933352;29;20412;-77
2023/04/27 01:22:17;;;;;;;7.18;4.60;;;8.50;99.90;;;7.43;100.00;97388.22;4933268;29;20411;-77
2023/04/27 01:24:45;;;;;;;7.70;5.38;;;8.50;99.90;;;7.45;100.00;97386.94;4933496;29;20823;-77
2023/04/27 01:27:12;;;;;;;8.33;4.87;;;8.50;99.90;;;7.48;100.00;97383.88;4933275;29;20830;-77
2023/04/27 01:29:38;;;;;;;9.95;5.45;;;8.50;99.90;;;7.48;100.00;97398.88;4933211;29;20421;-77
2023/04/27 01:32:04;;;;;;;8.93;4.72;;;8.50;99.90;;;7.46;100.00;97377.22;4931868;29;20415;-77
2023/04/27 01:34:30;;;;;;;6.80;4.85;;;8.50;99.90;;;7.45;100.00;97386.16;4933161;29;20415;-77
2023/04/27 01:36:56;;;;;;;8.57;4.27;;;8.50;99.90;;;7.44;100.00;97382.75;4933120;29;20411;-77
2023/04/27 01:39:22;;;;;;;6.80;5.13;;;8.50;99.90;;;7.44;100.00;97380.09;4933079;29;20455;-77
2023/04/27 01:41:49;;;;;;;13.45;5.38;;;8.50;99.90;;;7.41;100.00;97385.81;4933009;29;20483;-77
2023/04/27 01:44:15;;;;;;;9.60;5.25;;;8.50;99.90;;;7.37;100.00;97380.19;4935345;29;20437;-77
2023/04/27 01:46:41;;;;;;;11.32;5.15;;;8.40;99.90;;;7.36;100.00;97383.09;4936504;29;20438;-77
2023/04/27 01:49:07;;;;;;;8.02;4.97;;;8.40;99.90;;;7.34;100.00;97387.78;4936913;29;20435;-77
2023/04/27 01:51:33;;;;;;;10.40;5.13;;;8.40;99.90;;;7.32;100.00;97380.09;4936560;29;20423;-77
2023/04/27 01:53:59;;;;;;;9.07;5.03;;;8.40;99.90;;;7.29;100.00;97379.78;4936538;29;20446;-77
2023/04/27 01:56:25;;;;;;;7.95;4.90;;;8.40;99.90;;;7.25;100.00;97383.88;4936392;29;20766;-77
2023/04/27 01:58:53;;;;;;;10.02;5.47;;;8.30;99.90;;;7.22;100.00;97389.59;4935326;29;20412;-77
2023/04/27 02:01:20;;;;;;;8.23;4.78;;;8.30;99.90;;;7.19;100.00;97382.16;4936259;29;20511;-77
2023/04/27 02:03:46;;;;;;;10.60;5.18;;;8.30;99.90;;;7.18;100.00;97389.28;4936512;29;20415;-77
2023/04/27 02:06:12;;;;;;;11.55;5.00;;;8.20;99.90;;;7.16;100.00;97386.06;4936428;29;20415;-77
2023/04/27 02:08:38;;;;;;;5.77;4.70;;;8.20;99.90;;;7.14;100.00;97387.34;4936585;29;20762;-77
2023/04/27 02:11:04;;;;;;;8.95;5.10;;;8.20;99.90;;;7.14;100.00;97397.88;4936337;29;20412;-77
2023/04/27 02:13:29;;;;;;;8.35;4.97;;;8.20;99.90;;;7.12;100.00;97394.66;4936570;29;20766;-77
2023/04/27 02:15:57;;;;;;;11.07;5.50;;;8.20;99.90;;;7.12;100.00;97398.09;4936355;29;20441;-77
2023/04/27 02:18:23;;;;;;;9.68;5.22;;;8.20;99.90;;;7.13;100.00;97391.78;4936324;29;20494;-77
2023/04/27 02:20:49;;;;;;;8.05;4.60;;;8.20;99.90;;;7.13;100.00;97399.69;4935982;29;20462;-77
2023/04/27 02:23:15;;;;;;;8.00;5.32;;;8.20;99.90;;;7.13;100.00;97398.88;4936150;29;20483;-77
2023/04/27 02:25:45;;;;;;;14.87;4.77;;;8.20;99.90;;;7.14;100.00;97395.22;4935994;29;20454;-77
2023/04/27 02:28:11;;;;;;;9.47;4.90;;;8.20;99.90;;;7.09;100.00;97409.06;4936049;29;20454;-77
2023/04/27 02:30:37;;;;;;;8.00;5.25;;;8.20;99.90;;;7.09;100.00;97400.34;4935832;29;20435;-77
2023/04/27 02:33:05;;;;;;;6.63;4.70;;;8.10;99.90;;;7.09;100.00;97408.25;4936000;29;20876;-77
2023/04/27 02:35:32;;;;;;;7.47;5.38;;;8.20;99.90;;;7.12;100.00;97402.53;4935664;29;20474;-77
2023/04/27 02:37:58;;;;;;;6.68;4.95;;;8.20;99.90;;;7.16;100.00;97399.22;4935841;29;20906;-77
2023/04/27 02:40:24;;;;;;;8.90;5.88;;;8.20;99.90;;;7.19;100.00;97408.50;4934227;29;20462;-77
2023/04/27 02:42:50;;;;;;;9.88;5.50;;;8.20;99.90;;;7.18;100.00;97415.59;4935973;29;20765;-77
2023/04/27 02:45:17;;;;;;;11.18;5.38;;;8.20;99.90;;;7.13;100.00;97420.75;4935515;29;20412;-77
2023/04/27 02:47:42;;;;;;;9.15;5.05;;;8.10;99.90;;;7.09;100.00;97411.69;4935680;29;20411;-77
2023/04/27 02:50:12;;;;;;;12.27;5.35;;;8.10;99.90;;;7.10;100.00;97415.13;4935459;29;20870;-77
2023/04/27 02:52:38;;;;;;;9.45;5.50;;;8.10;99.90;;;7.06;100.00;97416.63;4935698;29;20470;-77
2023/04/27 02:55:05;;;;;;;10.45;5.25;;;8.10;99.90;;;7.03;100.00;97417.06;4934705;29;20419;-77
2023/04/27 02:57:31;;;;;;;8.80;5.20;;;8.10;99.90;;;7.02;100.00;97411.00;4935368;29;20415;-77
2023/04/27 02:59:57;;;;;;;8.05;5.18;;;8.10;99.90;;;7.04;100.00;97424.75;4935305;29;20926;-77
2023/04/27 03:02:23;;;;;;;8.50;5.53;;;8.10;99.90;;;7.08;100.00;97417.97;4935261;29;20454;-77
2023/04/27 03:04:52;;;;;;;8.15;5.63;;;8.10;99.90;;;7.13;100.00;97419.94;4935189;29;20414;-77
2023/04/27 03:07:20;;;;;;;8.33;5.70;;;8.20;99.90;;;7.15;100.00;97417.88;4935379;29;20443;-77
2023/04/27 03:09:46;;;;;;;7.77;5.67;;;8.20;99.90;;;7.13;100.00;97415.47;4935386;29;20527;-77
2023/04/27 03:12:12;;;;;;;10.88;6.40;;;8.20;99.90;;;7.15;100.00;97412.59;4935250;29;20511;-77
2023/04/27 03:14:38;;;;;;;9.85;5.40;;;8.20;99.90;;;7.12;100.00;97410.44;4935163;29;20470;-77
2023/04/27 03:17:04;;;;;;;13.40;5.63;;;8.20;99.90;;;7.08;100.00;97407.44;4935025;29;20411;-77
2023/04/27 03:19:30;;;;;;;9.88;6.43;;;8.10;99.90;;;7.09;100.00;97410.88;4935059;29;21025;-77
2023/04/27 03:21:56;;;;;;;12.55;6.38;;;8.10;99.90;;;7.08;100.00;97409.28;4934892;29;20518;-77
2023/04/27 03:24:24;;;;;;;12.40;5.93;;;8.10;99.90;;;7.09;100.00;97411.69;4934984;29;20890;-77
2023/04/27 03:26:51;;;;;;;9.40;5.78;;;8.10;99.90;;;7.12;100.00;97416.50;4934909;29;20426;-77
2023/04/27 03:29:16;;;;;;;9.30;6.05;;;8.20;99.90;;;7.14;100.00;97413.66;4934962;29;20491;-77
2023/04/27 03:31:42;;;;;;;7.43;5.70;;;8.20;99.90;;;7.15;100.00;97413.41;4934785;29;20494;-77
2023/04/27 03:34:08;;;;;;;8.35;5.75;;;8.20;99.90;;;7.18;100.00;97412.97;4937442;29;20520;-77
2023/04/27 03:36:34;;;;;;;8.23;6.05;;;8.20;99.90;;;7.21;100.00;97416.97;4955831;28;20418;-77
2023/04/27 03:39:00;;;;;;;11.33;5.97;;;8.30;99.90;;;7.23;100.00;97418.34;4956135;28;20410;-77
2023/04/27 03:41:27;;;;;;;9.50;6.60;;;8.30;99.90;;;7.24;100.00;97419.13;4954311;28;20429;-77
2023/04/27 03:43:53;;;;;;;9.40;6.40;;;8.30;99.90;;;7.24;100.00;97419.94;4953745;28;20824;-77
2023/04/27 03:46:19;;;;;;;16.13;7.53;;;8.30;99.90;;;7.23;100.00;97412.25;4939937;28;20408;-77
2023/04/27 03:48:46;;;;;;;12.70;6.93;;;8.30;99.90;;;7.22;100.00;97414.09;4923409;29;20409;-77
2023/04/27 03:51:12;;;;;;;14.00;6.57;;;8.30;99.90;;;7.19;100.00;97421.66;4925178;29;20418;-77
2023/04/27 03:53:38;;;;;;;13.35;6.93;;;8.20;99.90;;;7.13;100.00;97427.84;4929815;29;20482;-77
2023/04/27 03:56:04;;;;;;;13.97;7.50;;;8.10;99.90;;;7.04;100.00;97419.47;4928575;29;20415;-77
2023/04/27 03:58:31;;;;;;;11.55;7.03;;;8.10;99.90;;;6.99;100.00;97425.41;4928265;29;20416;-77
2023/04/27 04:00:57;;;;;;;13.32;7.28;;;8.00;99.90;;;6.98;100.00;97429.09;4926353;29;20433;-77
2023/04/27 04:03:23;;;;;;;11.45;6.97;;;8.00;99.90;;;6.98;100.00;97423.81;4923623;29;20886;-77
2023/04/27 04:05:49;;;;;;;10.82;7.30;;;8.00;99.90;;;6.95;100.00;97421.63;4920647;29;20871;-77
2023/04/27 04:08:15;;;;;;;10.48;7.40;;;8.00;99.90;;;6.95;100.00;97429.53;4922456;29;20424;-77
2023/04/27 04:10:41;;;;;;;12.33;7.27;;;8.00;99.90;;;6.96;100.00;97423.25;4930281;29;20804;-76
2023/04/27 04:13:07;;;;;;;13.63;7.95;;;8.00;99.90;;;6.97;100.00;97424.03;4921538;29;20443;-76
2023/04/27 04:15:34;;;;;;;11.35;7.30;;;8.00;99.90;;;6.96;100.00;97431.13;4923711;29;20419;-76
2023/04/27 04:18:00;;;;;;;11.67;7.30;;;8.00;99.90;;;6.93;100.00;97414.97;4928483;29;20418;-76
2023/04/27 04:20:26;;;;;;;15.48;7.38;;;8.00;99.90;;;6.91;100.00;97412.59;4917737;29;20780;-76
2023/04/27 04:22:52;;;;;;;10.98;7.22;;;7.90;99.90;;;6.92;100.00;97419.44;4933749;29;20834;-76
2023/04/27 04:25:19;;;;;;;13.53;7.87;;;8.00;99.90;;;6.95;100.00;97432.16;4933382;29;20502;-76
2023/04/27 04:27:46;;;;;;;15.35;8.35;;;8.00;99.90;;;7.00;100.00;97439.38;4930600;29;20419;-76
2023/04/27 04:30:13;;;;;;;9.38;6.97;;;8.00;99.90;;;7.03;100.00;97436.28;4929567;29;20427;-76
2023/04/27 04:32:41;;;;;;;14.52;7.90;;;8.10;99.90;;;7.05;100.00;97434.25;4917928;29;20408;-76
2023/04/27 04:35:07;;;;;;;15.13;7.63;;;8.10;99.90;;;7.06;100.00;97440.31;4926620;29;20413;-76
2023/04/27 04:37:36;;;;;;;12.43;7.43;;;8.10;99.90;;;7.03;100.00;97433.66;4922562;29;21060;-76
2023/04/27 04:40:09;;;;;;;15.48;6.88;;;8.10;99.90;;;7.00;100.00;97436.72;4930984;29;20483;-76
2023/04/27 04:42:36;;;;;;;14.15;7.20;;;8.00;99.90;;;6.99;100.00;97440.41;4933556;29;20435;-76
2023/04/27 04:45:03;;;;;;;10.50;7.53;;;8.00;99.90;;;6.98;100.00;97442.25;4916874;29;20436;-76
2023/04/27 04:47:33;;;;;;;13.88;7.78;;;8.00;99.90;;;7.01;100.00;97438.34;4932340;29;20423;-76
2023/04/27 04:50:00;;;;;;;13.83;7.63;;;8.10;99.90;;;7.05;100.00;97436.06;4927236;29;20467;-76
2023/04/27 04:52:26;;;;;;;17.48;7.95;;;8.10;99.90;;;7.05;100.00;97444.78;4933131;29;20436;-76
2023/04/27 04:54:52;;;;;;;11.73;7.40;;;8.10;99.90;;;7.05;100.00;97433.44;4932948;29;20410;-76
2023/04/27 04:57:20;;;;;;;9.43;6.93;;;8.10;99.90;;;7.10;100.00;97439.63;4933465;29;20414;-76
2023/04/27 04:59:46;;;;;;;10.32;7.13;;;8.10;99.90;;;7.16;100.00;97443.16;4930507;29;20474;-76
2023/04/27 05:02:12;;;;;;;10.82;7.30;;;8.20;99.90;;;7.21;100.00;97438.03;4930729;29;20431;-76
2023/04/27 05:04:38;;;;;;;10.02;7.18;;;8.20;99.90;;;7.24;100.00;97443.63;4930777;29;20424;-76
2023/04/27 05:07:05;;;;;;;13.43;7.88;;;8.30;99.90;;;7.28;100.00;97444.78;4925776;29;20415;-76
2023/04/27 05:09:31;;;;;;;10.60;7.10;;;8.30;99.90;;;7.34;100.00;97450.97;4933271;29;20415;-76
2023/04/27 05:11:57;;;;;;;10.13;7.15;;;8.40;99.90;;;7.38;100.00;97445.00;4924820;29;20792;-75
2023/04/27 05:14:23;;;;;;;8.98;7.28;;;8.40;99.90;;;7.45;100.00;97442.25;4926046;29;20909;-74
2023/04/27 05:16:50;;;;;;;15.07;8.37;;;8.50;99.90;;;7.50;100.00;97438.94;4932098;29;20458;-75
2023/04/27 05:19:17;;;;;;;11.38;7.80;;;8.50;99.90;;;7.54;100.00;97443.53;4918894;29;20419;-75
2023/04/27 05:21:43;;;;;;;13.13;8.30;;;8.50;99.90;;;7.54;100.00;97443.53;4923930;29;20483;-75
2023/04/27 05:24:11;;;;;;;11.30;8.52;;;8.50;99.90;;;7.58;100.00;97439.41;4927871;29;20421;-75
2023/04/27 05:26:37;;;;;;;12.20;8.40;;;8.60;99.90;;;7.66;100.00;97441.69;4931330;29;20501;-75
2023/04/27 05:29:03;;;;;;;12.25;7.75;;;8.60;99.90;;;7.71;100.00;97444.44;4921325;29;20424;-75
2023/04/27 05:31:31;;;;;;;9.40;7.13;;;8.70;99.90;;;7.78;100.00;97454.84;4934090;29;20419;-75
2023/04/27 05:33:57;;;;;;;8.77;6.80;;;8.80;99.90;;;7.85;100.00;97446.81;4932376;29;20423;-75
2023/04/27 05:36:22;;;;;;;10.68;7.97;;;8.80;99.90;;;7.91;100.00;97457.22;4930050;29;20423;-75
2023/04/27 05:38:48;;;;;;;10.60;7.63;;;8.90;99.90;;;7.97;100.00;97458.94;4936104;29;20498;-75
2023/04/27 05:41:16;;;;;;;12.77;8.50;;;8.90;99.90;;;8.03;100.00;97458.03;4922536;29;20437;-75
2023/04/27 05:43:42;;;;;;;10.85;7.60;;;9.00;99.90;;;8.09;100.00;97459.72;4918517;29;20467;-75
2023/04/27 05:46:13;;;;;;;13.20;10.15;;;9.10;99.90;;;8.09;100.00;97461.56;4932558;29;20895;-75
2023/04/27 05:48:40;;;;;;;17.65;10.18;;;9.00;99.90;;;8.12;100.00;97455.78;4925641;29;20462;-75
2023/04/27 05:51:06;;;;;;;15.47;9.40;;;9.00;99.90;;;8.08;100.00;97457.31;4925684;29;20476;-75
2023/04/27 05:53:32;;;;;;;17.65;9.15;;;9.00;99.90;;;8.04;100.00;97459.59;4933389;29;20426;-75
2023/04/27 05:56:00;;;;;;;14.45;9.32;;;8.90;99.90;;;8.12;100.00;97461.06;4925604;29;20480;-75
2023/04/27 05:58:27;;;;;;;12.23;9.45;;;9.10;99.90;;;8.25;100.00;97468.75;4934934;29;20826;-75
2023/04/27 06:00:53;;;;;;;17.60;9.70;;;9.20;99.90;;;8.35;100.00;97476.06;4933078;29;20871;-75
2023/04/27 06:03:19;;;;;;;15.75;10.88;;;9.20;99.90;;;8.41;100.00;97473.31;4931456;29;20506;-75
2023/04/27 06:05:45;;;;;;;14.70;10.38;;;9.40;99.90;;;8.50;100.00;97477.16;4932188;29;20454;-74
2023/04/27 06:08:12;;;;;;;19.70;10.23;;;9.40;99.90;;;8.57;100.00;97477.00;4924994;29;20412;-75
2023/04/27 06:10:38;;;;;;;15.90;9.05;;;9.50;99.90;;;8.58;100.00;97470.69;4934613;29;20927;-74
2023/04/27 06:13:04;;;;;;;17.25;8.85;;;9.50;99.90;;;8.50;100.00;97477.16;4925652;29;20438;-74
2023/04/27 06:15:33;;;;;;;14.35;8.50;;;9.40;99.90;;;8.57;100.00;97473.59;4931015;29;20421;-74
2023/04/27 06:17:58;;;;;;;12.30;8.48;;;9.50;99.90;;;8.59;100.00;97467.03;4934219;29;20439;-73
2023/04/27 06:20:24;;;;;;;15.00;8.40;;;9.50;99.90;;;8.59;100.00;97459.13;4934843;29;20426;-73
2023/04/27 06:22:50;;;;;;;14.63;7.82;;;9.50;99.90;;;8.63;100.00;97478.72;4936237;29;20905;-73
2023/04/27 06:25:16;;;;;;;14.90;8.20;;;9.50;99.90;;;8.64;100.00;97480.34;4936057;29;20502;-73
2023/04/27 06:27:42;;;;;;;14.20;7.53;;;9.50;99.90;;;8.69;100.00;97476.97;4936185;29;20767;-74
2023/04/27 06:30:10;;;;;;;10.57;7.18;;;9.60;99.90;;;8.78;100.00;97479.00;4935085;29;20443;-74
2023/04/27 06:32:37;;;;;;;11.07;6.82;;;9.70;99.90;;;8.85;100.00;97482.28;4935897;29;20458;-75
2023/04/27 06:35:04;;;;;;;16.25;8.43;;;9.80;99.90;;;8.91;100.00;97488.47;4935919;29;20416;-74
2023/04/27 06:37:30;;;;;;;13.32;7.80;;;9.80;99.90;;;8.92;100.00;97482.16;4934784;29;20514;-75
2023/04/27 06:39:56;;;;;;;19.33;8.00;;;9.80;99.90;;;8.98;100.00;97483.03;4954043;23;20461;-75
2023/04/27 06:42:22;;;;;;;11.70;7.60;;;9.90;99.90;;;9.09;100.00;97487.44;4945771;28;20925;-75
2023/04/27 06:44:47;;;;;;;13.75;7.75;;;10.00;99.90;;;9.12;100.00;97484.31;4941039;29;20468;-77
2023/04/27 06:47:13;;;;;;;12.65;7.38;;;10.00;99.90;;;9.25;100.00;97490.09;4943667;28;20490;-76
2023/04/27 06:49:41;;;;;;;12.83;6.90;;;10.10;99.90;;;9.29;100.00;97491.22;4943000;28;20445;-76
2023/04/27 06:52:06;;;;;;;11.73;6.97;;;10.20;99.90;;;9.31;100.00;97496.28;4954397;28;20410;-76
2023/04/27 06:54:32;;;;;;;14.20;7.65;;;10.20;99.90;;;9.33;100.00;97494.97;4936547;28;20490;-76
2023/04/27 06:56:58;;;;;;;12.13;6.38;;;10.20;99.90;;;9.35;100.00;97496.56;4936046;29;20424;-76
2023/04/27 06:59:24;;;;;;;15.50;6.90;;;10.20;99.90;;;9.36;100.00;97506.09;4949401;29;20889;-75
2023/04/27 07:01:50;;;;;;;9.85;6.40;;;10.30;99.90;;;9.36;100.00;97512.19;4953164;29;20488;-75
2023/04/27 07:04:16;;;;;;;14.30;6.55;;;10.20;99.90;;;9.33;100.00;97504.72;4953451;28;20496;-75
2023/04/27 07:06:43;;;;;;;12.95;7.45;;;10.30;99.90;;;9.45;100.00;97505.47;4954454;28;20410;-75
2023/04/27 07:09:09;;;;;;;10.47;6.53;;;10.30;99.90;;;9.51;100.00;97495.78;4954450;28;20558;-74
2023/04/27 07:11:35;;;;;;;14.20;6.80;;;10.40;99.90;;;9.56;100.00;97499.28;4954673;28;20446;-74
2023/04/27 07:14:01;;;;;;;10.48;6.38;;;10.40;99.90;;;9.58;100.00;97491.94;4954530;28;20489;-74
2023/04/27 07:16:27;;;;;;;10.88;5.82;;;10.50;99.90;;;9.61;100.00;97494.09;4954006;28;20409;-74
2023/04/27 07:18:53;;;;;;;12.38;5.75;;;10.50;99.90;;;9.66;100.00;97490.72;4935406;29;20932;-74
2023/04/27 07:21:18;;;;;;;11.90;6.20;;;10.50;99.90;;;9.74;100.00;97492.94;4935135;29;20470;-75
2023/04/27 07:23:46;;;;;;;8.68;5.57;;;10.60;99.90;;;9.84;100.00;97484.38;4933909;29;20416;-76
2023/04/27 07:26:12;;;;;;;10.40;5.88;;;10.70;99.90;;;9.95;100.00;97492.19;4935098;29;20423;-76
2023/04/27 07:28:38;;;;;;;11.98;5.60;;;10.80;99.90;;;10.09;100.00;97489.97;4935125;29;20443;-75
2023/04/27 07:31:05;;;;;;;11.93;6.17;;;10.90;99.90;;;10.21;100.00;97489.91;4934367;29;20811;-76
2023/04/27 07:33:31;;;;;;;11.70;5.85;;;11.00;99.90;;;10.31;100.00;97487.38;4943966;29;20876;-76
2023/04/27 07:35:57;;;;;;;12.18;5.50;;;11.10;99.90;;;10.40;100.00;97477.97;4942295;28;20479;-75
2023/04/27 07:38:24;;;;;;;8.90;5.55;;;11.20;99.90;;;10.46;100.00;97477.78;4934878;29;20447;-75
2023/04/27 07:40:51;;;;;;;7.83;4.77;;;11.30;99.90;;;10.46;100.00;97483.06;4935481;29;20490;-76
2023/04/27 07:43:17;;;;;;;11.40;6.03;;;11.30;99.90;;;10.47;100.00;97474.09;4953938;28;20457;-76
2023/04/27 07:45:44;;;;;;;8.63;6.27;;;11.30;99.90;;;10.49;100.00;97473.84;4950640;29;20852;-76
2023/04/27 07:48:15;;;;;;;12.00;6.10;;;11.30;99.90;;;10.51;100.00;97479.69;4950599;28;20414;-75
2023/04/27 07:50:47;;;;;;;8.27;5.03;;;11.30;99.90;;;10.58;100.00;97475.00;4947927;29;20485;-75
2023/04/27 07:53:13;;;;;;;10.63;5.70;;;11.40;99.90;;;10.65;100.00;97480.91;4951243;28;20417;-75
2023/04/27 07:55:40;;;;;;;9.73;5.63;;;11.50;99.90;;;10.73;100.00;97477.81;4953327;28;20410;-75
2023/04/27 07:58:07;;;;;;;12.27;6.68;;;11.50;99.90;;;10.80;100.00;97474.97;4953674;28;20420;-75
2023/04/27 08:00:33;;;;;;;8.75;5.80;;;11.60;99.90;;;10.94;100.00;97476.16;4953047;28;20429;-75
2023/04/27 08:02:59;;;;;;;10.68;5.57;;;11.70;99.90;;;11.01;100.00;97475.94;4953710;28;20413;-74
2023/04/27 08:05:25;;;;;;;12.45;5.90;;;11.80;99.90;;;11.13;100.00;97481.88;4953406;28;20895;-75
2023/04/27 08:07:52;;;;;;;8.13;5.30;;;11.90;99.90;;;11.19;100.00;97479.03;4953481;28;20410;-75
2023/04/27 08:10:18;;;;;;;10.00;5.65;;;11.90;99.90;;;11.27;100.00;97485.72;4953216;28;20437;-75
2023/04/27 08:12:44;;;;;;;10.43;5.50;;;12.00;99.90;;;11.32;100.00;97479.66;4951592;29;20448;-75
2023/04/27 08:15:11;;;;;;;9.30;5.78;;;12.10;99.90;;;11.44;100.00;97485.56;4952837;28;20422;-75
2023/04/27 08:17:40;;;;;;;8.40;4.75;;;12.20;99.90;;;11.57;100.00;97474.56;4950761;28;20409;-74
2023/04/27 08:20:11;;;;;;;7.22;4.80;;;12.30;99.90;;;11.72;100.00;97473.84;4937322;29;20407;-74
2023/04/27 08:22:37;;;;;;;9.02;5.53;;;12.40;99.90;;;11.87;100.00;97471.31;4945411;28;20405;-74
2023/04/27 08:25:04;;;;;;;8.52;4.47;;;12.50;99.90;;;11.99;100.00;97477.22;4953041;28;20410;-74
2023/04/27 08:27:30;;;;;;;8.53;5.37;;;12.70;99.90;;;12.11;100.00;97475.16;4953503;28;20402;-74
2023/04/27 08:29:57;;;;;;;8.43;5.47;;;12.80;99.90;;;12.16;100.00;97469.09;4953531;28;20421;-74
2023/04/27 08:32:24;;;;;;;8.25;4.75;;;12.90;99.90;;;12.20;100.00;97470.16;4952792;28;20425;-75
2023/04/27 08:34:50;;;;;;;7.97;4.88;;;12.90;99.90;;;12.17;100.00;97470.69;4952673;28;20472;-75
2023/04/27 08:37:17;;;;;;;10.02;5.68;;;12.90;99.90;;;12.28;100.00;97465.16;4952919;28;20417;-76
2023/04/27 08:39:43;;;;;;;8.02;5.50;;;13.00;99.90;;;12.26;100.00;97458.50;4947567;28;20451;-75
2023/04/27 08:42:13;;;;;;;8.27;4.63;;;13.00;99.90;;;12.31;100.00;97461.97;4943068;29;20574;-78
2023/04/27 08:44:40;;;;;;;8.00;4.88;;;13.00;99.90;;;12.32;100.00;97463.59;4965066;28;20432;-78
2023/04/27 08:47:06;;;;;;;12.20;4.80;;;13.10;99.90;;;12.40;100.00;97460.41;4943471;29;20782;-77
2023/04/27 08:49:33;;;;;;;7.70;4.88;;;13.10;99.90;;;12.43;100.00;97458.28;4948672;29;20777;-78
2023/04/27 08:52:00;;;;;;;6.55;4.63;;;13.20;99.90;;;12.51;100.00;97453.28;4955223;28;20428;-77
2023/04/27 08:54:26;;;;;;;5.72;4.45;;;13.20;99.90;;;12.53;100.00;97456.47;4955566;28;20419;-78
2023/04/27 08:56:52;;;;;;;8.25;5.10;;;13.30;99.90;;;12.57;100.00;97452.22;4956347;28;20406;-77
2023/04/27 08:59:18;;;;;;;6.82;4.70;;;13.30;99.90;;;12.69;100.00;97455.47;4936097;29;20431;-77
2023/04/27 09:01:45;;;;;;;5.93;4.70;;;13.40;99.90;;;12.85;100.00;97461.59;4941765;29;20597;-79
2023/04/27 09:04:11;;;;;;;6.60;4.63;;;13.50;99.90;;;12.96;100.00;97455.22;4941765;29;20420;-77
2023/04/27 09:06:38;;;;;;;8.53;5.60;;;13.70;99.90;;;13.08;100.00;97450.44;4941126;29;20446;-78
2023/04/27 09:09:06;;;;;;;7.32;4.70;;;13.80;99.90;;;13.17;100.00;97453.41;4938716;29;20415;-77
2023/04/27 09:11:33;;;;;;;9.02;4.97;;;13.90;99.90;;;13.24;100.00;97453.13;4940225;29;20505;-77
2023/04/27 09:14:02;;;;;;;9.20;4.90;;;13.90;99.90;;;13.34;100.00;97459.25;4937237;29;20416;-78
2023/04/27 09:16:29;;;;;;;7.35;3.95;;;14.00;99.90;;;13.57;100.00;97449.94;4942659;29;20414;-78
2023/04/27 09:18:57;;;;;;;7.57;4.40;;;14.20;99.90;;;13.72;100.00;97460.56;4962181;28;20574;-78
2023/04/27 09:21:24;;;;;;;9.70;4.55;;;14.40;99.90;;;13.93;100.00;97463.97;4960924;28;20438;-80
2023/04/27 09:23:52;;;;;;;7.03;4.43;;;14.50;99.90;;;14.01;100.00;97474.06;4963548;28;20884;-79
2023/04/27 09:26:23;;;;;;;8.38;4.35;;;14.60;99.90;;;14.17;100.00;97467.63;4963680;28;20401;-78
2023/04/27 09:28:51;;;;;;;9.80;5.33;;;14.70;99.90;;;14.26;100.00;97471.31;4954826;28;20403;-78
2023/04/27 09:31:17;;;;;;;9.85;4.80;;;14.90;99.90;;;14.47;100.00;97463.25;4952969;28;20413;-77
2023/04/27 09:33:45;;;;;;;8.00;4.60;;;15.10;99.90;;;14.68;100.00;97462.09;4939058;29;20529;-78
2023/04/27 09:36:11;;;;;;;9.68;5.40;;;15.30;99.90;;;14.76;100.00;97461.50;4939627;29;20415;-77
2023/04/27 09:38:37;;;;;;;8.93;4.63;;;15.40;99.90;;;14.82;100.00;97457.72;4937337;29;20506;-78
2023/04/27 09:41:06;;;;;;;8.38;4.25;;;15.40;99.90;;;14.94;100.00;97465.41;4938127;29;20431;-78
2023/04/27 09:43:33;;;;;;;11.68;5.20;;;15.60;99.90;;;14.94;100.00;97470.72;4942489;29;20491;-78
2023/04/27 09:46:00;;;;;;;7.55;4.43;;;15.60;99.90;;;15.08;100.00;97467.16;4935983;29;20471;-78
2023/04/27 09:48:26;;;;;;;8.40;4.47;;;15.70;99.90;;;15.15;100.00;97464.19;4944311;29;20412;-78
2023/04/27 09:50:52;;;;;;;8.10;4.00;;;15.70;99.90;;;15.20;100.00;97455.34;4943918;29;20425;-79
2023/04/27 09:53:23;;;;;;;8.48;4.32;;;15.80;99.90;;;15.28;100.00;97452.88;4943462;29;20411;-78
2023/04/27 09:56:08;;;;;;;6.77;4.20;;;15.90;99.90;;;15.38;100.00;97454.66;4960548;29;20923;-78
2023/04/27 09:59:06;;;;;;;5.75;3.80;;;16.00;99.90;;;15.53;100.00;97453.75;4942180;29;20431;-78
2023/04/27 10:01:40;;;;;;;5.13;3.85;;;16.10;99.90;;;15.59;100.00;97450.78;4944847;29;20502;-79
2023/04/27 10:04:30;;;;;;;9.75;5.65;;;16.20;99.90;;;15.69;100.00;97455.22;4946422;29;20426;-78
2023/04/27 10:07:01;;;;;;;9.20;4.50;;;16.40;99.90;;;15.62;100.00;97460.09;4937191;29;20434;-78
2023/04/27 10:09:35;;;;;;;7.78;4.60;;;16.30;99.90;;;15.61;100.00;97466.50;4937445;29;20475;-78
2023/04/27 10:12:15;;;;;;;6.80;4.05;;;16.30;99.90;;;15.69;100.00;97456.03;4936116;29;20422;-78
2023/04/27 10:14:51;;;;;;;9.98;4.93;;;16.30;99.90;;;15.86;100.00;97461.69;4952641;29;20902;-79
2023/04/27 10:17:22;;;;;;;6.57;4.80;;;16.40;99.90;;;16.21;100.00;97459.75;4945499;29;20410;-78